Time;durP1;ratioP1;P1;durP2;ratioP2;P2;SDS_P1;SDS_P2;PMS_P1;PMS_P2;Temp;Humidity;BMP_temperature;BMP_pressure;BME280_temperature;BME280_humidity;BME280_pressure;Samples;Min_cycle;Max_cycle;Signal;HPM_P1;HPM_P2
2022/08/17 00:01:23;;;;;;;7.33;4.20;;;26.00;53.90;;;26.25;39.55;98006.34;5004796;28;123218;-71
2022/08/17 00:03:51;;;;;;;5.23;4.10;;;25.90;53.80;;;26.21;39.35;98003.56;5022024;28;123802;-72
2022/08/17 00:06:27;;;;;;;6.70;4.40;;;25.90;53.90;;;26.17;39.65;97997.19;5010157;27;118896;-72
2022/08/17 00:09:02;;;;;;;4.43;3.90;;;25.90;54.20;;;26.13;39.38;98004.97;5032276;27;118956;-72
2022/08/17 00:11:37;;;;;;;6.50;4.00;;;25.80;54.00;;;26.10;39.37;98005.84;5040392;27;123441;-71
2022/08/17 00:14:12;;;;;;;4.90;4.07;;;25.80;54.00;;;26.07;39.60;98003.09;5034077;27;123815;-72
2022/08/17 00:16:49;;;;;;;5.30;3.73;;;25.70;54.00;;;26.06;39.23;97992.97;5030593;27;119667;-72
2022/08/17 00:19:21;;;;;;;4.97;3.53;;;25.70;54.10;;;26.03;39.84;97991.03;5041770;27;118905;-72
2022/08/17 00:21:51;;;;;;;6.67;3.70;;;25.70;54.20;;;26.00;39.67;97999.16;5036542;27;124320;-71
2022/08/17 00:24:18;;;;;;;5.50;3.70;;;25.70;54.20;;;25.98;39.75;97992.38;5039207;27;123759;-72
2022/08/17 00:26:46;;;;;;;5.77;4.03;;;25.60;54.10;;;25.96;39.42;97994.81;5040971;27;120310;-71
2022/08/17 00:29:13;;;;;;;5.90;3.83;;;25.60;54.10;;;25.94;39.38;97991.63;5039697;27;120030;-72
2022/08/17 00:31:39;;;;;;;6.53;4.50;;;25.60;54.20;;;25.92;39.75;97994.09;5048225;27;124692;-72
2022/08/17 00:34:07;;;;;;;7.23;4.50;;;25.60;54.40;;;25.90;40.17;97991.72;5038057;27;124291;-72
2022/08/17 00:36:35;;;;;;;5.33;4.63;;;25.50;54.60;;;25.87;40.11;97988.94;5048022;27;119954;-72
2022/08/17 00:39:01;;;;;;;6.10;4.33;;;25.50;54.70;;;25.83;40.43;97983.31;5047975;27;118973;-72
2022/08/17 00:41:28;;;;;;;6.37;4.60;;;25.50;55.00;;;25.80;40.24;97987.03;5043419;27;124132;-71
2022/08/17 00:44:01;;;;;;;7.70;4.70;;;25.40;55.10;;;25.79;40.59;97979.75;5042359;27;124903;-71
2022/08/17 00:46:39;;;;;;;7.23;4.53;;;25.40;55.30;;;25.75;40.32;97984.69;5040066;27;119807;-71
2022/08/17 00:49:07;;;;;;;6.30;4.20;;;25.40;55.40;;;25.72;40.72;97974.25;5041123;27;118722;-71
2022/08/17 00:51:52;;;;;;;5.73;4.80;;;25.40;55.50;;;25.69;40.61;97990.06;5037081;27;124679;-71
2022/08/17 00:54:33;;;;;;;5.37;4.20;;;25.40;55.70;;;25.66;40.47;97984.50;5040381;27;123058;-71
2022/08/17 00:57:06;;;;;;;4.90;4.07;;;25.30;55.60;;;25.63;40.83;97988.97;5039283;27;119714;-71
2022/08/17 01:00:05;;;;;;;6.87;4.80;;;25.30;55.70;;;25.56;40.80;97981.41;5045953;27;119073;-71
2022/08/17 01:02:38;;;;;;;7.30;4.83;;;25.30;55.90;;;25.54;40.93;97983.88;5044202;27;123101;-71
2022/08/17 01:05:07;;;;;;;6.67;4.80;;;25.20;56.00;;;25.52;41.09;97988.38;5043940;27;123748;-71
2022/08/17 01:07:33;;;;;;;6.37;4.50;;;25.20;56.10;;;25.50;41.10;97985.97;5040407;27;119769;-71
2022/08/17 01:10:05;;;;;;;5.40;4.10;;;25.20;56.20;;;25.48;41.18;97982.78;5049552;27;118913;-71
2022/08/17 01:12:35;;;;;;;4.90;4.40;;;25.10;56.40;;;25.46;41.08;97976.75;5030826;27;123806;-71
2022/08/17 01:15:04;;;;;;;6.60;4.60;;;25.10;56.60;;;25.44;41.30;97976.41;5037068;27;122969;-71
2022/08/17 01:17:32;;;;;;;5.07;4.20;;;25.10;56.70;;;25.41;41.49;97982.91;5039272;27;120553;-70
2022/08/17 01:19:59;;;;;;;5.13;4.20;;;25.10;56.80;;;25.39;41.60;97974.06;5018731;27;119797;-71
2022/08/17 01:22:25;;;;;;;5.93;4.47;;;25.10;56.80;;;25.37;41.47;97979.34;5039513;27;124174;-71
2022/08/17 01:24:58;;;;;;;6.73;4.20;;;25.00;56.80;;;25.34;41.29;97977.41;5040665;27;122958;-71
2022/08/17 01:27:26;;;;;;;7.10;4.10;;;25.00;56.80;;;25.32;41.29;97975.00;5039562;27;119246;-71
2022/08/17 01:29:59;;;;;;;8.70;3.97;;;25.00;56.80;;;25.31;41.35;97966.97;5033352;27;119195;-70
2022/08/17 01:32:27;;;;;;;6.00;4.20;;;24.90;56.80;;;25.27;41.64;97977.53;5036471;27;124384;-71
2022/08/17 01:34:55;;;;;;;6.17;4.23;;;24.90;56.90;;;25.26;41.64;97978.75;5042582;27;124063;-70
2022/08/17 01:37:34;;;;;;;5.70;4.50;;;24.90;57.10;;;25.23;41.72;97979.63;5041252;27;119894;-71
2022/08/17 01:40:42;;;;;;;5.03;4.10;;;24.90;57.10;;;25.17;41.78;97984.16;5039918;27;119124;-70
2022/08/17 01:43:27;;;;;;;5.53;4.20;;;24.80;57.20;;;25.14;42.05;97985.78;5036464;27;124104;-70
2022/08/17 01:45:55;;;;;;;6.30;4.00;;;24.80;57.30;;;25.12;41.59;97986.22;5038405;27;124009;-70
2022/08/17 01:48:23;;;;;;;5.93;3.97;;;24.80;57.40;;;25.10;42.09;97985.84;5023341;27;118971;-71
2022/08/17 01:50:51;;;;;;;5.80;4.10;;;24.70;57.40;;;25.09;41.63;97984.28;5039615;27;119200;-71
2022/08/17 01:53:28;;;;;;;5.90;4.20;;;24.70;57.40;;;25.07;42.19;97986.72;5019603;27;123292;-71
2022/08/17 01:56:05;;;;;;;5.20;4.70;;;24.70;57.50;;;25.05;42.05;97989.19;5042123;27;122869;-71
2022/08/17 01:58:34;;;;;;;5.50;4.70;;;24.70;57.60;;;25.04;42.08;97986.75;5037373;27;119437;-70
2022/08/17 02:01:02;;;;;;;4.77;4.17;;;24.70;57.60;;;25.01;41.99;97988.44;5032948;27;119110;-71
2022/08/17 02:03:30;;;;;;;5.67;4.90;;;24.70;57.70;;;25.00;41.95;97989.66;5039384;27;124693;-71
2022/08/17 02:05:57;;;;;;;8.13;4.30;;;24.60;57.60;;;24.98;41.68;97989.28;5025321;27;125275;-70
2022/08/17 02:08:24;;;;;;;5.50;4.10;;;24.60;57.60;;;24.95;41.81;97978.84;5033173;27;119617;-71
2022/08/17 02:10:51;;;;;;;6.50;4.60;;;24.60;57.60;;;24.92;41.87;97993.84;5029473;27;119936;-71
2022/08/17 02:13:18;;;;;;;7.57;4.20;;;24.50;57.60;;;24.91;41.87;97990.22;5034078;27;123517;-71
2022/08/17 02:15:45;;;;;;;4.67;4.27;;;24.50;57.70;;;24.89;42.18;97989.84;5026935;27;126101;-70
2022/08/17 02:18:14;;;;;;;4.13;3.73;;;24.50;57.80;;;24.89;41.99;97994.69;5026927;27;119608;-71
2022/08/17 02:20:41;;;;;;;3.93;3.60;;;24.50;58.00;;;24.87;42.06;97994.31;5027849;27;118834;-71
2022/08/17 02:23:10;;;;;;;4.63;4.10;;;24.50;58.00;;;24.85;42.18;97999.59;5025325;27;124326;-71
2022/08/17 02:25:39;;;;;;;5.93;3.90;;;24.50;58.20;;;24.84;42.38;98000.81;5031472;27;123034;-71
2022/08/17 02:28:05;;;;;;;6.20;3.87;;;24.50;58.30;;;24.82;42.30;97995.59;5026194;27;119356;-71
2022/08/17 02:30:32;;;;;;;5.47;4.20;;;24.40;58.30;;;24.82;42.28;97991.97;5025556;27;118203;-71
2022/08/17 02:32:59;;;;;;;6.43;4.67;;;24.40;58.40;;;24.80;42.28;97988.81;5040767;27;123137;-71
2022/08/17 02:35:26;;;;;;;4.23;3.63;;;24.40;58.40;;;24.78;42.33;97992.03;5024904;27;123945;-71
2022/08/17 02:37:52;;;;;;;4.00;3.60;;;24.40;58.50;;;24.78;42.56;97989.22;5025823;27;119105;-71
2022/08/17 02:40:20;;;;;;;4.80;3.80;;;24.40;58.60;;;24.78;42.28;97994.06;5027194;27;118956;-70
2022/08/17 02:42:47;;;;;;;4.77;4.00;;;24.40;58.70;;;24.77;42.49;97989.63;5046321;27;123772;-71
2022/08/17 02:45:19;;;;;;;5.57;4.70;;;24.40;58.80;;;24.75;42.72;97992.91;5030271;27;123798;-71
2022/08/17 02:47:46;;;;;;;4.77;4.10;;;24.40;58.80;;;24.75;42.53;97997.75;5032722;27;119289;-71
2022/08/17 02:50:16;;;;;;;5.07;4.60;;;24.30;58.80;;;24.73;42.65;97994.56;5029824;27;118953;-71
2022/08/17 02:52:45;;;;;;;5.50;4.20;;;24.40;58.90;;;24.72;42.50;97993.75;5024106;27;124176;-71
2022/08/17 02:55:22;;;;;;;6.20;4.40;;;24.30;58.90;;;24.69;42.61;97988.97;5031342;27;122902;-71
2022/08/17 02:57:49;;;;;;;6.53;4.57;;;24.30;59.00;;;24.67;42.92;97992.22;5023768;27;120705;-70
2022/08/17 03:00:32;;;;;;;5.27;3.70;;;24.30;59.10;;;24.66;42.83;97989.78;5040076;27;119281;-71
2022/08/17 03:03:00;;;;;;;8.73;4.60;;;24.30;59.20;;;24.63;42.83;97988.63;5045119;27;123003;-71
2022/08/17 03:05:29;;;;;;;3.93;3.60;;;24.30;59.30;;;24.62;42.93;97987.03;5027013;27;123274;-71
2022/08/17 03:07:56;;;;;;;4.50;4.10;;;24.20;59.30;;;24.60;42.90;97992.31;5030164;27;119761;-70
2022/08/17 03:10:24;;;;;;;5.77;4.20;;;24.20;59.30;;;24.60;43.01;97997.16;5032162;27;117910;-71
2022/08/17 03:12:52;;;;;;;5.87;4.10;;;24.20;59.40;;;24.58;42.96;97999.59;5028547;27;125861;-70
2022/08/17 03:15:26;;;;;;;4.93;3.77;;;24.20;59.50;;;24.56;42.87;97991.56;5029570;27;123815;-71
2022/08/17 03:17:54;;;;;;;6.20;4.53;;;24.20;59.60;;;24.56;42.80;98002.09;5026158;27;119687;-71
2022/08/17 03:20:21;;;;;;;6.10;4.23;;;24.10;59.50;;;24.53;43.26;98003.72;5027143;27;117930;-71
2022/08/17 03:22:53;;;;;;;5.27;4.03;;;24.10;59.60;;;24.51;43.05;97989.22;5026212;27;123940;-71
2022/08/17 03:25:31;;;;;;;6.90;4.47;;;24.10;59.70;;;24.49;43.07;98002.19;5023285;27;123642;-71
2022/08/17 03:27:58;;;;;;;5.57;4.63;;;24.10;59.70;;;24.46;43.13;98003.81;5034472;27;119293;-70
2022/08/17 03:30:27;;;;;;;5.50;4.30;;;24.10;59.60;;;24.44;42.94;98014.75;5024725;27;119017;-70
2022/08/17 03:32:57;;;;;;;6.57;4.70;;;24.10;59.70;;;24.41;43.05;98015.56;5025136;27;123964;-70
2022/08/17 03:35:27;;;;;;;7.77;4.20;;;24.00;59.60;;;24.40;43.09;98017.59;5025088;27;123748;-70
2022/08/17 03:37:54;;;;;;;5.10;4.20;;;24.00;59.80;;;24.39;43.27;98026.47;5034910;27;118956;-70
2022/08/17 03:40:21;;;;;;;5.87;4.43;;;24.00;59.80;;;24.38;42.98;98024.88;5025065;27;119285;-70
2022/08/17 03:42:49;;;;;;;5.73;4.53;;;24.00;59.80;;;24.34;43.46;98018.47;5043934;27;125285;-70
2022/08/17 03:56:40;;;;;;;5.13;4.00;;;24.00;60.00;;;24.33;43.50;98017.69;5040931;27;124244;-70
2022/08/17 03:56:43;;;;;;;5.30;4.43;;;23.90;60.50;;;24.21;43.57;98019.06;5035590;27;125238;-70
2022/08/17 03:59:17;;;;;;;9.93;4.50;;;23.80;60.50;;;24.20;43.71;98025.13;5027325;27;119564;-71
2022/08/17 04:01:46;;;;;;;5.60;4.10;;;23.80;60.60;;;24.18;43.98;98034.03;5025139;27;119212;-70
2022/08/17 04:04:13;;;;;;;4.53;3.90;;;23.80;60.60;;;24.15;43.85;98029.22;5027175;27;123245;-71
2022/08/17 04:06:41;;;;;;;8.07;4.63;;;23.70;60.60;;;24.13;43.94;98034.47;5033330;27;123877;-71
2022/08/17 04:09:08;;;;;;;4.13;3.73;;;23.70;60.80;;;24.14;43.84;98040.94;5016294;27;118503;-70
2022/08/17 04:11:36;;;;;;;7.70;4.20;;;23.90;61.10;;;24.14;44.00;98041.72;5031171;27;118790;-71
2022/08/17 04:14:04;;;;;;;5.07;4.50;;;23.70;61.10;;;24.13;44.24;98036.50;5036648;27;123921;-71
2022/08/17 04:16:33;;;;;;;6.23;4.87;;;23.70;62.00;;;24.13;43.92;98033.69;5027514;27;123875;-71
2022/08/17 04:19:01;;;;;;;5.57;4.13;;;23.70;61.50;;;24.14;44.06;98032.47;5025647;27;118475;-71
2022/08/17 04:21:27;;;;;;;5.50;4.40;;;23.70;61.50;;;24.14;44.13;98027.59;5029569;27;118863;-71
2022/08/17 04:23:54;;;;;;;7.13;5.00;;;23.70;61.60;;;24.14;44.21;98043.75;5027877;27;124137;-70
2022/08/17 04:26:21;;;;;;;6.13;4.30;;;23.70;61.60;;;24.14;44.13;98055.84;5028331;27;123857;-71
2022/08/17 04:28:48;;;;;;;8.53;4.83;;;23.70;61.80;;;24.12;44.35;98052.63;5038918;27;119833;-71
2022/08/17 04:31:15;;;;;;;9.33;4.80;;;23.70;61.80;;;24.12;44.32;98052.63;5029434;27;118394;-71
2022/08/17 04:33:43;;;;;;;4.83;3.70;;;23.70;61.90;;;24.12;44.39;98063.91;5027877;27;124070;-70
2022/08/17 04:36:12;;;;;;;5.50;4.43;;;23.70;62.00;;;24.13;44.30;98064.75;5030046;27;123830;-70
2022/08/17 04:38:42;;;;;;;4.80;4.23;;;23.70;62.00;;;24.12;43.95;98066.75;5034802;27;120308;-70
2022/08/17 04:43:57;;;;;;;6.60;4.23;;;23.70;61.90;;;24.09;44.31;98064.75;5030844;27;124642;-70
2022/08/17 04:46:31;;;;;;;6.83;4.53;;;23.60;61.80;;;24.06;44.45;98071.25;5031786;27;123619;-71
2022/08/17 04:49:00;;;;;;;7.43;5.20;;;23.60;62.00;;;23.99;44.74;98079.78;5028736;27;119584;-71
2022/08/17 04:51:36;;;;;;;7.83;6.40;;;23.60;62.60;;;23.86;45.10;98084.38;4999963;27;118743;-71
2022/08/17 04:54:21;;;;;;;12.07;6.47;;;23.40;63.40;;;23.70;45.42;98082.91;5030689;27;124080;-71
2022/08/17 04:56:47;;;;;;;10.00;5.93;;;23.30;63.80;;;23.64;45.66;98078.91;5018558;27;123222;-71
2022/08/17 04:59:20;;;;;;;8.03;5.60;;;23.20;64.10;;;23.60;45.76;98086.63;5038891;27;119673;-71
2022/08/17 05:01:50;;;;;;;7.90;5.80;;;23.10;64.20;;;23.60;45.76;98078.97;5042236;27;119257;-71
2022/08/17 05:04:23;;;;;;;7.33;5.23;;;23.10;64.40;;;23.62;45.81;98089.84;5031306;27;124212;-71
2022/08/17 05:06:50;;;;;;;8.90;5.33;;;23.10;64.50;;;23.64;45.97;98084.56;5036877;27;124447;-71
2022/08/17 05:09:17;;;;;;;12.80;6.20;;;23.10;64.60;;;23.67;45.86;98092.22;5025322;27;119891;-71
2022/08/17 05:11:46;;;;;;;8.93;6.10;;;23.20;64.80;;;23.72;45.65;98082.50;5028654;27;119090;-71
2022/08/17 05:14:13;;;;;;;8.23;5.40;;;23.20;64.80;;;23.76;46.07;98078.44;5042697;27;123318;-71
2022/08/17 05:16:40;;;;;;;9.40;5.63;;;23.30;65.00;;;23.81;45.90;98080.00;5026575;27;123970;-71
2022/08/17 05:19:06;;;;;;;6.03;5.07;;;23.30;65.00;;;23.85;45.71;98077.13;5026617;27;119775;-71
2022/08/17 05:21:33;;;;;;;7.90;5.17;;;23.40;65.20;;;23.90;45.85;98085.94;5028118;27;119442;-71
2022/08/17 05:23:59;;;;;;;9.70;5.00;;;23.40;65.20;;;23.95;45.78;98079.84;5032888;27;123851;-71
2022/08/17 05:26:27;;;;;;;6.87;6.17;;;23.40;65.20;;;24.00;45.72;98078.59;5041736;27;123950;-71
2022/08/17 05:28:58;;;;;;;8.57;5.53;;;23.50;65.30;;;24.02;45.86;98087.44;5041929;27;118318;-71
2022/08/17 05:31:26;;;;;;;10.70;5.80;;;23.40;65.50;;;24.03;45.79;98091.84;5025205;27;119888;-71
2022/08/17 05:33:52;;;;;;;11.10;5.60;;;23.50;65.60;;;24.09;45.76;98092.97;5040626;27;123696;-71
2022/08/17 05:36:19;;;;;;;10.63;6.23;;;23.50;65.60;;;24.13;45.51;98096.59;5044389;27;123708;-72
2022/08/17 05:38:45;;;;;;;10.63;6.90;;;23.60;65.60;;;24.16;45.50;98090.09;5028061;27;119137;-72
2022/08/17 05:41:12;;;;;;;10.73;8.23;;;23.60;65.60;;;24.12;45.80;98097.78;5027563;27;119289;-72
2022/08/17 05:43:41;;;;;;;14.13;6.67;;;23.50;65.80;;;24.03;46.08;98078.53;5026826;27;124087;-72
2022/08/17 05:46:22;;;;;;;11.10;6.60;;;23.50;66.00;;;23.99;45.65;98082.63;5030011;27;124099;-72
2022/08/17 05:49:03;;;;;;;9.57;6.40;;;23.50;66.20;;;24.00;45.92;98089.88;5038168;27;118931;-72
2022/08/17 05:51:55;;;;;;;9.57;6.47;;;23.50;66.20;;;24.05;45.77;98094.28;5026454;27;119181;-71
2022/08/17 05:54:32;;;;;;;8.93;6.37;;;23.50;66.20;;;24.12;45.79;98091.34;5025467;27;124852;-71
2022/08/17 05:57:36;;;;;;;10.63;7.73;;;23.60;66.20;;;24.16;45.76;98098.56;5026303;27;123898;-71
2022/08/17 06:00:22;;;;;;;13.50;6.90;;;23.60;66.40;;;24.22;45.68;98099.69;5039570;27;120027;-71
2022/08/17 06:03:32;;;;;;;12.10;6.60;;;23.70;66.00;;;24.29;45.27;98103.63;5034656;27;119657;-71
2022/08/17 06:06:30;;;;;;;10.20;6.50;;;23.70;65.80;;;24.24;45.41;98108.53;5027914;27;124502;-71
2022/08/17 06:09:40;;;;;;;6.70;5.90;;;23.70;65.70;;;24.26;45.27;98116.59;5027666;27;123815;-71
2022/08/17 06:13:06;;;;;;;9.73;6.07;;;23.70;65.70;;;24.29;45.13;98117.75;5030036;27;118971;-72
2022/08/17 06:16:09;;;;;;;10.10;6.13;;;23.70;65.60;;;24.34;45.00;98129.41;5002991;28;118994;-72
2022/08/17 06:18:47;;;;;;;9.70;6.80;;;23.80;65.50;;;24.41;45.09;98128.50;5023769;27;123091;-71
2022/08/17 06:21:18;;;;;;;13.67;6.07;;;23.90;65.40;;;24.46;44.61;98130.91;5041270;27;124155;-71
2022/08/17 06:24:27;;;;;;;20.00;7.60;;;23.90;65.20;;;24.51;44.64;98129.66;5041373;27;120244;-72
2022/08/17 06:27:01;;;;;;;9.10;5.87;;;23.90;65.20;;;24.59;44.53;98140.44;5042734;27;119845;-72
2022/08/17 06:30:10;;;;;;;8.57;6.03;;;24.00;65.20;;;24.69;44.46;98130.22;5040203;27;124083;-72
2022/08/17 06:32:41;;;;;;;10.77;6.40;;;24.10;65.20;;;24.79;44.59;98119.97;5044121;27;124309;-72
2022/08/17 06:35:15;;;;;;;11.27;6.40;;;24.20;65.00;;;24.85;43.88;98121.91;5037492;27;119516;-72
2022/08/17 06:38:06;;;;;;;7.83;5.07;;;24.20;64.70;;;24.86;43.72;98129.16;5043187;27;119095;-72
2022/08/17 06:40:44;;;;;;;9.80;5.40;;;24.20;64.30;;;24.90;43.75;98141.22;5046360;27;123063;-72
2022/08/17 06:43:39;;;;;;;10.37;6.00;;;24.30;64.30;;;24.97;43.70;98151.63;5043298;27;123854;-72
2022/08/17 06:46:28;;;;;;;10.87;6.20;;;24.40;64.20;;;25.08;43.38;98162.78;5039355;27;117459;-72
2022/08/17 06:49:25;;;;;;;8.33;5.10;;;24.40;64.00;;;25.11;43.63;98162.72;5029460;27;117696;-71
2022/08/17 06:52:17;;;;;;;7.77;4.77;;;24.50;64.00;;;25.21;43.44;98161.00;5035658;27;124673;-71
2022/08/17 06:54:52;;;;;;;7.20;5.40;;;24.50;64.00;;;25.30;43.17;98154.81;5040731;27;123881;-72
2022/08/17 06:57:28;;;;;;;5.90;4.80;;;24.60;63.60;;;25.38;42.76;98139.31;5041221;27;118691;-71
2022/08/17 07:00:12;;;;;;;9.37;5.57;;;24.70;63.40;;;25.45;42.86;98136.38;5037664;27;118837;-71
2022/08/17 07:03:05;;;;;;;6.87;5.10;;;24.80;63.10;;;25.48;42.45;98124.22;5037710;27;124142;-71
2022/08/17 07:06:12;;;;;;;6.60;4.40;;;24.80;62.80;;;25.57;42.55;98118.00;5039129;27;123521;-70
2022/08/17 07:09:03;;;;;;;9.00;5.00;;;24.90;62.60;;;25.69;42.19;98122.25;5036302;27;119093;-69
2022/08/17 07:11:47;;;;;;;6.90;4.47;;;25.00;62.50;;;25.83;41.79;98126.88;5036056;27;119006;-70
2022/08/17 07:14:37;;;;;;;7.00;4.80;;;25.10;62.30;;;25.97;41.76;98118.94;5037183;27;123741;-70
2022/08/17 07:17:13;;;;;;;6.57;4.80;;;25.20;61.70;;;26.04;40.90;98118.00;5029389;27;124224;-70
2022/08/17 07:19:44;;;;;;;5.23;3.93;;;25.30;61.10;;;26.08;41.29;98117.94;5026246;27;119630;-70
2022/08/17 07:22:21;;;;;;;5.00;3.73;;;25.40;60.70;;;26.14;40.66;98108.50;5026231;27;119231;-71
2022/08/17 07:24:51;;;;;;;6.03;4.40;;;25.50;60.40;;;26.29;40.47;98117.50;5030485;27;124131;-72
2022/08/17 07:27:27;;;;;;;5.57;3.80;;;25.60;60.30;;;26.42;40.58;98112.78;5025042;27;123802;-71
2022/08/17 07:30:10;;;;;;;5.33;4.20;;;25.60;60.00;;;26.54;40.15;98104.91;5027334;27;119363;-71
2022/08/17 07:32:45;;;;;;;11.83;4.73;;;25.70;60.00;;;26.64;40.06;98112.38;5037303;27;118917;-72
2022/08/17 07:35:31;;;;;;;7.13;4.93;;;25.90;59.70;;;26.71;39.58;98112.22;5035881;27;124040;-72
2022/08/17 07:38:27;;;;;;;11.97;5.40;;;25.90;59.40;;;26.82;39.54;98112.00;5023983;27;124232;-72
2022/08/17 07:41:03;;;;;;;6.10;4.80;;;26.10;59.00;;;26.96;39.52;98108.03;5031542;27;119317;-71
2022/08/17 07:43:38;;;;;;;7.33;4.83;;;26.20;58.90;;;27.07;39.02;98117.88;5034751;27;119194;-70
2022/08/17 07:49:02;;;;;;;10.07;5.03;;;26.30;57.90;;;27.21;38.50;98119.59;5031468;27;124395;-70
2022/08/17 07:51:54;;;;;;;6.50;4.97;;;26.40;57.50;;;27.20;38.58;98123.69;5033618;27;119735;-71
2022/08/17 07:54:29;;;;;;;8.40;4.70;;;26.50;57.30;;;27.17;38.30;98123.78;5027372;27;119100;-71
2022/08/17 07:57:09;;;;;;;5.87;4.20;;;26.50;57.10;;;27.16;38.63;98131.44;5027996;27;124030;-71
2022/08/17 07:59:39;;;;;;;5.03;4.30;;;26.50;56.90;;;27.13;38.51;98132.31;5034297;27;123072;-71
2022/08/17 08:02:26;;;;;;;5.47;4.13;;;26.50;57.10;;;27.14;38.60;98138.81;5033340;27;120479;-70
2022/08/17 08:05:22;;;;;;;4.60;3.70;;;26.50;56.70;;;27.14;38.65;98139.63;5020515;27;118223;-72
2022/08/17 08:08:16;;;;;;;4.80;4.30;;;26.60;56.70;;;27.18;38.83;98145.22;5029714;27;124285;-72
2022/08/17 08:10:43;;;;;;;8.87;5.30;;;26.60;56.60;;;27.21;38.62;98144.34;5030885;27;123125;-71
2022/08/17 08:13:13;;;;;;;9.37;4.53;;;26.60;56.50;;;27.25;38.70;98148.69;5041939;27;120220;-70
2022/08/17 08:15:47;;;;;;;6.37;4.10;;;26.70;56.50;;;27.28;38.13;98142.13;5031475;27;119913;-71
2022/08/17 08:18:28;;;;;;;8.63;5.20;;;26.70;56.40;;;27.31;38.09;98144.09;5014053;27;123418;-70
2022/08/17 08:21:04;;;;;;;11.50;5.60;;;26.70;56.20;;;27.34;38.18;98153.75;5026303;27;122917;-71
2022/08/17 08:23:45;;;;;;;8.30;5.07;;;26.80;56.10;;;27.37;37.99;98149.25;5029775;27;117556;-72
2022/08/17 08:26:46;;;;;;;9.00;4.33;;;27.80;56.80;;;27.41;38.25;98158.47;5032687;27;118846;-72
2022/08/17 08:29:56;;;;;;;7.43;4.93;;;26.90;55.90;;;27.40;37.95;98151.97;5028234;27;124136;-72
2022/08/17 08:33:07;;;;;;;8.97;5.17;;;26.90;55.80;;;27.41;38.08;98150.75;5025945;27;123816;-71
2022/08/17 08:35:55;;;;;;;7.90;4.47;;;26.90;55.80;;;27.44;38.17;98160.44;5030753;27;119839;-71
2022/08/17 08:38:55;;;;;;;7.70;4.60;;;26.90;55.70;;;27.47;37.78;98162.38;5027237;27;118856;-72
2022/08/17 08:41:59;;;;;;;12.50;4.60;;;27.00;55.70;;;27.42;37.90;98172.22;5038105;27;124725;-71
2022/08/17 08:44:46;;;;;;;8.03;4.70;;;26.90;55.40;;;27.44;37.72;98174.63;5042770;27;124571;-71
2022/08/17 08:48:03;;;;;;;10.70;5.80;;;26.90;55.40;;;27.39;37.81;98169.47;5040037;27;119386;-72
2022/08/17 08:51:08;;;;;;;11.80;5.47;;;26.90;55.30;;;27.36;38.36;98173.97;5022916;27;119384;-70
2022/08/17 08:54:21;;;;;;;6.93;4.50;;;26.90;55.40;;;27.40;38.11;98168.22;5030190;27;123445;-71
2022/08/17 08:57:05;;;;;;;7.03;4.13;;;26.90;55.50;;;27.45;38.08;98176.19;5018309;27;123381;-70
2022/08/17 08:59:51;;;;;;;6.50;4.90;;;26.90;55.50;;;27.48;38.01;98180.97;5038449;27;119800;-71
2022/08/17 09:03:03;;;;;;;5.40;3.83;;;27.00;55.50;;;27.50;37.85;98170.00;5039244;27;118187;-71
2022/08/17 09:06:07;;;;;;;10.33;4.43;;;27.00;55.30;;;27.53;37.93;98172.75;5035293;27;122972;-69
2022/08/17 09:09:01;;;;;;;10.73;4.20;;;27.00;55.20;;;27.56;38.04;98182.41;5038294;27;125841;-70
2022/08/17 09:11:53;;;;;;;7.53;4.50;;;27.10;55.20;;;27.56;38.00;98176.75;5042628;27;119721;-71
2022/08/17 09:14:38;;;;;;;5.83;4.43;;;27.10;55.10;;;27.56;37.78;98176.75;5040632;27;120099;-72
2022/08/17 09:17:30;;;;;;;4.60;4.03;;;27.10;55.10;;;27.60;37.63;98173.81;5025730;27;124266;-71
2022/08/17 09:20:24;;;;;;;10.33;4.60;;;27.10;55.10;;;27.60;37.78;98171.78;5040614;27;123990;-72
2022/08/17 09:23:02;;;;;;;6.00;4.13;;;27.10;55.00;;;27.63;38.07;98170.91;5030299;27;119320;-71
2022/08/17 09:25:41;;;;;;;8.23;4.30;;;27.20;55.10;;;27.64;38.09;98175.31;5024045;27;118365;-70
2022/08/17 09:28:20;;;;;;;4.73;3.93;;;27.20;55.10;;;27.65;37.78;98190.34;5041206;27;123524;-70
2022/08/17 09:30:55;;;;;;;4.63;3.63;;;27.20;54.90;;;27.65;38.00;98193.97;5034082;27;123738;-71
2022/08/17 09:33:25;;;;;;;5.43;3.77;;;27.20;55.00;;;27.65;38.00;98199.63;5032846;27;119583;-70
2022/08/17 09:36:13;;;;;;;8.30;4.37;;;27.20;55.30;;;27.64;38.53;98200.06;5039679;27;119106;-71
2022/08/17 09:39:09;;;;;;;4.73;4.13;;;27.20;55.70;;;27.60;38.64;98205.06;5022697;27;123491;-71
2022/08/17 09:42:09;;;;;;;7.97;4.30;;;27.20;55.90;;;27.58;39.27;98207.53;5030147;27;123866;-72
2022/08/17 09:45:07;;;;;;;7.23;4.70;;;27.20;56.50;;;27.50;38.97;98198.38;5037459;27;118366;-71
2022/08/17 09:47:45;;;;;;;5.83;3.80;;;27.10;56.70;;;27.49;39.25;98200.41;5037187;27;118288;-72
2022/08/17 09:50:29;;;;;;;4.40;3.77;;;27.10;56.70;;;27.52;39.54;98193.06;5038773;27;123222;-70
2022/08/17 09:52:58;;;;;;;10.77;4.63;;;27.10;57.20;;;27.54;40.00;98182.88;5043208;27;123918;-71
2022/08/17 09:56:03;;;;;;;6.77;3.97;;;27.10;57.60;;;27.57;40.17;98178.34;5032101;27;119282;-72
2022/08/17 09:59:06;;;;;;;5.27;3.63;;;27.10;58.10;;;27.56;40.35;98188.09;5026437;27;119084;-71
2022/08/17 10:02:10;;;;;;;7.40;4.73;;;27.10;58.60;;;27.59;41.01;98203.44;5029734;27;123930;-70
2022/08/17 10:04:50;;;;;;;4.20;3.80;;;27.10;59.10;;;27.60;40.61;98214.34;5025141;27;124569;-71
2022/08/17 10:07:43;;;;;;;5.33;3.57;;;27.10;59.00;;;27.58;40.34;98207.53;5024245;27;120239;-72
2022/08/17 10:10:30;;;;;;;5.60;4.37;;;27.10;58.80;;;27.59;41.16;98209.91;5027307;27;120564;-71
2022/08/17 10:13:16;;;;;;;8.30;3.90;;;27.10;59.20;;;27.58;41.70;98216.84;5031445;27;123195;-71
2022/08/17 10:16:22;;;;;;;4.57;3.90;;;27.10;59.90;;;27.53;40.69;98215.31;5043227;27;123868;-71
2022/08/17 10:19:43;;;;;;;4.10;3.57;;;27.10;59.40;;;27.52;41.07;98212.94;5029201;27;119491;-70
2022/08/17 10:28:08;;;;;;;4.40;3.77;;;27.10;60.90;;;27.65;41.41;98225.19;5027869;27;125136;-70
2022/08/17 10:30:46;;;;;;;5.63;3.90;;;27.10;60.60;;;27.65;40.82;98216.66;5024802;27;119283;-71
2022/08/17 10:33:27;;;;;;;8.63;3.80;;;27.20;59.90;;;27.68;41.09;98229.19;5037202;27;119391;-71
2022/08/17 10:36:06;;;;;;;5.30;4.27;;;27.20;59.70;;;27.71;41.15;98236.81;5027331;27;123947;-72
2022/08/17 10:38:46;;;;;;;4.43;3.10;;;27.20;60.00;;;27.72;41.29;98242.03;5027229;27;124068;-70
2022/08/17 10:41:39;;;;;;;5.80;3.23;;;27.20;60.00;;;27.72;40.74;98250.53;5042305;27;119488;-71
2022/08/17 10:44:33;;;;;;;4.30;3.57;;;27.20;59.40;;;27.73;40.34;98248.53;5032059;27;118425;-70
2022/08/17 10:47:17;;;;;;;5.37;3.83;;;27.20;59.10;;;27.72;40.27;98253.38;5029316;27;124269;-70
2022/08/17 10:49:52;;;;;;;4.13;3.70;;;27.20;59.10;;;27.75;40.45;98249.69;5024118;27;123657;-70
2022/08/17 10:52:18;;;;;;;3.50;3.10;;;27.30;59.20;;;27.77;40.49;98261.38;5025329;27;119497;-73
2022/08/17 10:55:09;;;;;;;4.33;3.43;;;27.30;58.90;;;27.77;40.12;98247.19;5035465;27;118772;-72
2022/08/17 10:57:40;;;;;;;5.90;3.40;;;27.30;58.70;;;27.78;40.33;98267.88;5032604;27;124424;-72
2022/08/17 11:00:20;;;;;;;4.30;3.10;;;27.30;58.70;;;27.75;40.61;98269.56;5034726;27;123844;-71
2022/08/17 11:02:54;;;;;;;6.00;3.27;;;27.30;59.00;;;27.69;41.30;98271.31;5024552;27;120320;-73
2022/08/17 11:05:30;;;;;;;4.97;3.50;;;27.30;59.80;;;27.60;41.57;98291.00;5022981;27;119708;-73
2022/08/17 11:08:45;;;;;;;5.60;3.93;;;27.20;59.90;;;27.43;42.64;98278.81;5035258;27;124112;-73
2022/08/17 11:11:48;;;;;;;4.07;3.40;;;27.10;61.20;;;27.33;42.83;98288.34;5037173;27;123609;-73
2022/08/17 11:14:36;;;;;;;5.37;3.80;;;27.00;61.40;;;27.24;42.75;98282.44;5028017;27;118809;-72
2022/08/17 11:17:20;;;;;;;5.90;3.70;;;26.90;61.90;;;27.06;43.87;98297.00;5033281;27;118271;-70
2022/08/17 11:20:11;;;;;;;4.83;2.97;;;26.80;62.50;;;26.82;44.46;98294.22;5010089;27;123740;-70